createdAt,value
2018-12-14T00:01:20.260Z,60.25
2018-12-14T00:03:49.251Z,59.77
2018-12-14T00:06:18.187Z,59.80
2018-12-14T00:08:47.151Z,60.02
2018-12-14T00:11:16.143Z,60.07
2018-12-14T00:13:45.233Z,60.29
2018-12-14T00:16:14.107Z,60.62
2018-12-14T00:18:42.996Z,60.07
2018-12-14T00:21:11.940Z,60.03
2018-12-14T00:23:40.642Z,60.06
2018-12-14T00:26:09.592Z,58.93
2018-12-14T00:28:38.452Z,58.27
2018-12-14T00:31:07.615Z,58.71
2018-12-14T00:33:36.677Z,58.56
2018-12-14T00:36:05.735Z,58.85
2018-12-14T00:38:34.825Z,58.78
2018-12-14T00:41:03.721Z,58.60
2018-12-14T00:43:32.790Z,58.38
2018-12-14T00:46:01.792Z,58.46
2018-12-14T00:48:30.823Z,58.52
2018-12-14T00:50:59.445Z,59.25
2018-12-14T00:53:28.303Z,60.36
2018-12-14T00:55:56.927Z,59.77
2018-12-14T00:58:25.973Z,60.17
2018-12-14T01:00:54.975Z,59.91
2018-12-14T01:03:23.696Z,60.52
2018-12-14T01:05:52.904Z,60.63
2018-12-14T01:08:21.639Z,60.21
2018-12-14T01:10:50.498Z,60.99
2018-12-14T01:13:19.520Z,60.93
2018-12-14T01:15:48.446Z,60.48
2018-12-14T01:18:17.347Z,60.84
2018-12-14T01:20:46.289Z,60.96
2018-12-14T01:23:15.256Z,61.27
2018-12-14T01:25:44.050Z,61.70
2018-12-14T01:28:12.818Z,61.31
2018-12-14T01:30:41.662Z,61.76
2018-12-14T01:33:10.640Z,62.20
2018-12-14T01:35:39.547Z,62.85
2018-12-14T01:38:08.394Z,62.57
2018-12-14T01:40:37.332Z,62.86
2018-12-14T01:43:06.298Z,62.45
2018-12-14T01:45:35.494Z,62.57
2018-12-14T01:48:04.457Z,62.83
2018-12-14T01:50:33.418Z,63.46
2018-12-14T01:53:02.222Z,62.49
2018-12-14T01:55:31.252Z,62.02
2018-12-14T01:58:00.314Z,62.40
2018-12-14T02:00:29.386Z,61.48
2018-12-14T02:02:58.252Z,61.83
2018-12-14T02:05:27.315Z,61.26
2018-12-14T02:07:56.079Z,61.88
2018-12-14T02:10:25.066Z,61.63
2018-12-14T02:12:54.058Z,61.90
2018-12-14T02:15:22.744Z,61.96
2018-12-14T02:17:51.675Z,62.37
2018-12-14T02:20:20.504Z,61.74
2018-12-14T02:22:49.371Z,60.97
2018-12-14T02:25:18.345Z,61.40
2018-12-14T02:27:47.363Z,61.36
2018-12-14T02:30:27.091Z,60.52
2018-12-14T02:32:56.118Z,61.26
2018-12-14T02:35:25.068Z,60.87
2018-12-14T02:37:54.287Z,61.07
2018-12-14T02:40:23.353Z,61.81
2018-12-14T02:42:52.274Z,61.44
2018-12-14T02:45:21.193Z,60.76
2018-12-14T02:47:50.235Z,60.33
2018-12-14T02:50:19.318Z,60.63
2018-12-14T02:52:48.377Z,61.12
2018-12-14T02:55:17.467Z,60.64
2018-12-14T02:57:46.531Z,61.19
2018-12-14T03:00:15.241Z,61.39
2018-12-14T03:02:44.457Z,61.38
2018-12-14T03:05:13.399Z,62.43
2018-12-14T03:07:42.354Z,62.68
2018-12-14T03:10:11.505Z,63.57
2018-12-14T03:12:40.364Z,63.12
2018-12-14T03:15:09.399Z,62.34
2018-12-14T03:17:38.544Z,62.08
2018-12-14T03:20:08.476Z,62.28
2018-12-14T03:22:37.625Z,63.14
2018-12-14T03:25:06.759Z,63.13
2018-12-14T03:27:35.799Z,63.33
2018-12-14T03:30:05.435Z,63.61
2018-12-14T03:32:34.468Z,63.81
2018-12-14T03:35:03.305Z,63.24
2018-12-14T03:37:32.377Z,63.29
2018-12-14T03:40:01.407Z,64.07
2018-12-14T03:42:34.234Z,63.87
2018-12-14T03:45:01.305Z,63.39
2018-12-14T03:47:30.040Z,63.58
2018-12-14T03:49:59.174Z,62.71
2018-12-14T03:52:28.206Z,62.56
2018-12-14T03:54:56.936Z,61.86
2018-12-14T03:57:25.792Z,62.11
2018-12-14T03:59:54.706Z,62.38
2018-12-14T04:02:23.571Z,62.08
2018-12-14T04:04:52.488Z,62.67
2018-12-14T04:07:21.469Z,63.22
2018-12-14T04:09:50.417Z,62.28
2018-12-14T04:12:19.508Z,62.02
2018-12-14T04:14:48.649Z,62.75
2018-12-14T04:17:17.681Z,62.72
2018-12-14T04:19:46.744Z,62.85
2018-12-14T04:22:15.659Z,63.54
2018-12-14T04:24:44.593Z,64.08
2018-12-14T04:27:13.639Z,63.70
2018-12-14T04:29:42.553Z,62.31
2018-12-14T04:32:11.301Z,62.39
2018-12-14T04:34:40.429Z,62.82
2018-12-14T04:37:09.342Z,62.67
2018-12-14T04:39:38.064Z,62.87
2018-12-14T04:42:07.090Z,62.78
2018-12-14T04:44:35.744Z,63.29
2018-12-14T04:47:04.657Z,62.49
2018-12-14T04:49:33.849Z,63.15
2018-12-14T04:52:05.196Z,63.35
2018-12-14T04:54:34.266Z,63.30
2018-12-14T04:57:03.139Z,63.69
2018-12-14T04:59:32.224Z,64.28
2018-12-14T05:02:01.284Z,64.51
2018-12-14T05:04:30.334Z,63.74
2018-12-14T05:06:59.196Z,63.51
2018-12-14T05:09:28.366Z,63.69
2018-12-14T05:11:57.369Z,64.07
2018-12-14T05:14:26.319Z,63.70
2018-12-14T05:16:55.200Z,64.23
2018-12-14T05:19:24.204Z,64.28
2018-12-14T05:21:53.228Z,64.75
2018-12-14T05:24:21.888Z,65.15
2018-12-14T05:26:50.503Z,65.23
2018-12-14T05:29:19.464Z,65.17
2018-12-14T05:31:48.293Z,64.99
2018-12-14T05:34:17.389Z,65.59
2018-12-14T05:36:45.992Z,65.36
2018-12-14T05:39:15.191Z,65.39
2018-12-14T05:41:44.032Z,65.27
2018-12-14T05:44:12.968Z,65.31
2018-12-14T05:46:42.080Z,65.34
2018-12-14T05:49:11.088Z,65.74
2018-12-14T05:51:40.038Z,65.89
2018-12-14T05:54:09.059Z,65.72
2018-12-14T05:56:38.183Z,65.88
2018-12-14T05:59:06.995Z,65.86
2018-12-14T06:01:36.048Z,65.91
2018-12-14T06:04:05.311Z,66.27
2018-12-14T06:06:34.037Z,65.80
2018-12-14T06:09:04.192Z,65.98
2018-12-14T06:11:33.277Z,65.49
2018-12-14T06:14:02.281Z,66.17
2018-12-14T06:16:30.948Z,66.24
2018-12-14T06:18:59.966Z,66.11
2018-12-14T06:21:29.076Z,65.87
2018-12-14T06:23:58.046Z,65.54
2018-12-14T06:26:27.075Z,65.78
2018-12-14T06:28:55.980Z,65.96
2018-12-14T06:31:25.008Z,65.71
2018-12-14T06:33:53.740Z,65.37
2018-12-14T06:36:22.584Z,65.18
2018-12-14T06:38:51.525Z,65.01
2018-12-14T06:41:20.455Z,64.15
2018-12-14T06:43:49.518Z,63.89
2018-12-14T06:46:18.838Z,63.23
2018-12-14T06:48:47.897Z,62.83
2018-12-14T06:51:16.939Z,63.40
2018-12-14T06:53:45.956Z,63.64
2018-12-14T06:56:14.847Z,63.58
2018-12-14T06:58:43.839Z,63.09
2018-12-14T07:01:12.872Z,62.90
2018-12-14T07:03:41.912Z,62.76
2018-12-14T07:06:10.828Z,62.26
2018-12-14T07:08:39.554Z,63.31
2018-12-14T07:11:08.488Z,62.46
2018-12-14T07:13:37.248Z,62.40
2018-12-14T07:16:06.289Z,62.34
2018-12-14T07:18:35.383Z,61.71
2018-12-14T07:21:04.285Z,61.19
2018-12-14T07:23:33.334Z,59.58
2018-12-14T07:26:02.099Z,58.92
2018-12-14T07:28:30.808Z,59.46
2018-12-14T07:30:59.893Z,59.09
2018-12-14T07:33:28.850Z,58.49
2018-12-14T07:35:57.753Z,57.64
2018-12-14T07:38:26.834Z,56.97
2018-12-14T07:40:55.701Z,56.70
2018-12-14T07:43:28.323Z,56.59
2018-12-14T07:45:55.494Z,56.10
2018-12-14T07:48:24.361Z,55.74
2018-12-14T07:50:53.325Z,54.16
2018-12-14T07:53:22.091Z,54.60
2018-12-14T07:55:51.253Z,54.20
2018-12-14T07:58:20.374Z,53.77
2018-12-14T08:00:49.411Z,53.80
2018-12-14T08:03:18.430Z,54.10
2018-12-14T08:05:47.491Z,53.77
2018-12-14T08:08:16.728Z,53.60
2018-12-14T08:10:45.692Z,53.18
2018-12-14T08:13:14.801Z,53.42
2018-12-14T08:15:43.767Z,51.84
2018-12-14T08:18:12.695Z,50.88
2018-12-14T08:20:41.636Z,49.99
2018-12-14T08:23:10.308Z,49.53
2018-12-14T08:25:39.201Z,49.60
2018-12-14T08:28:08.194Z,49.14
2018-12-14T08:30:37.312Z,48.81
2018-12-14T08:33:06.403Z,48.37
2018-12-14T08:35:35.292Z,48.72
2018-12-14T08:38:04.324Z,48.38
2018-12-14T08:40:33.393Z,48.53
2018-12-14T08:43:02.040Z,48.76
2018-12-14T08:45:30.936Z,48.69
2018-12-14T08:48:00.151Z,49.29
2018-12-14T08:50:29.054Z,49.10
2018-12-14T08:52:57.938Z,49.26
2018-12-14T08:55:26.611Z,49.24
2018-12-14T08:57:55.317Z,49.10
2018-12-14T09:00:24.403Z,49.44
2018-12-14T09:02:53.394Z,48.89
2018-12-14T09:05:22.321Z,48.41
2018-12-14T09:07:51.356Z,48.06
2018-12-14T09:10:20.377Z,48.25
2018-12-14T09:12:49.358Z,48.23
2018-12-14T09:15:18.141Z,48.94
2018-12-14T09:17:47.394Z,49.64
2018-12-14T09:20:16.552Z,49.53
2018-12-14T09:22:45.374Z,49.72
2018-12-14T09:25:14.297Z,50.03
2018-12-14T09:27:43.369Z,49.45
2018-12-14T09:30:12.551Z,52.06
2018-12-14T09:32:41.517Z,53.29
2018-12-14T09:35:10.438Z,54.41
2018-12-14T09:37:39.377Z,55.59
2018-12-14T09:40:08.428Z,56.23
2018-12-14T09:42:37.366Z,56.38
2018-12-14T09:45:06.931Z,56.67
2018-12-14T09:47:35.918Z,56.79
2018-12-14T09:50:05.192Z,58.44
2018-12-14T09:52:34.164Z,58.40
2018-12-14T09:55:03.204Z,57.80
2018-12-14T09:57:32.103Z,57.70
2018-12-14T10:00:01.006Z,58.47
2018-12-14T10:02:30.124Z,58.00
2018-12-14T10:04:59.042Z,58.50
2018-12-14T10:07:27.975Z,58.83
2018-12-14T10:09:56.940Z,59.00
2018-12-14T10:12:25.952Z,59.00
2018-12-14T10:14:54.794Z,60.30
2018-12-14T10:17:23.664Z,60.12
2018-12-14T10:19:52.708Z,60.25
2018-12-14T10:22:21.797Z,60.40
2018-12-14T10:24:50.646Z,60.37
2018-12-14T10:27:19.710Z,60.35
2018-12-14T10:29:48.720Z,60.06
2018-12-14T10:32:17.723Z,59.86
2018-12-14T10:34:46.821Z,60.86
2018-12-14T10:37:15.489Z,60.51
2018-12-14T10:39:44.544Z,60.54
2018-12-14T10:42:13.618Z,59.97
2018-12-14T10:44:42.547Z,60.78
2018-12-14T10:47:11.713Z,60.38
2018-12-14T10:49:40.810Z,60.27
2018-12-14T10:52:09.427Z,60.63
2018-12-14T10:54:38.735Z,60.61
2018-12-14T10:57:07.675Z,61.47
2018-12-14T10:59:36.640Z,61.45
2018-12-14T11:02:05.356Z,61.47
2018-12-14T11:04:34.121Z,61.29
2018-12-14T11:07:03.042Z,61.71
2018-12-14T11:09:32.245Z,61.99
2018-12-14T11:12:01.242Z,63.03
2018-12-14T11:14:29.943Z,63.11
2018-12-14T11:16:58.901Z,62.87
2018-12-14T11:19:27.896Z,62.21
2018-12-14T11:21:56.792Z,61.65
2018-12-14T11:24:25.847Z,62.37
2018-12-14T11:26:54.985Z,62.03
2018-12-14T11:29:24.562Z,62.12
2018-12-14T11:31:53.168Z,62.58
2018-12-14T11:34:22.325Z,61.98
2018-12-14T11:36:51.097Z,61.40
2018-12-14T11:39:20.206Z,61.51
2018-12-14T11:41:49.213Z,60.99
2018-12-14T11:44:21.342Z,61.30
2018-12-14T11:46:49.232Z,62.46
2018-12-14T11:49:18.185Z,62.53
2018-12-14T11:51:47.315Z,62.35
2018-12-14T11:54:17.492Z,61.86
2018-12-14T11:56:46.348Z,62.48
2018-12-14T11:59:15.260Z,63.50
2018-12-14T12:01:44.274Z,63.31
2018-12-14T12:04:13.265Z,63.61
2018-12-14T12:06:42.220Z,63.52
2018-12-14T12:09:12.303Z,63.65
2018-12-14T12:11:41.252Z,62.98
2018-12-14T12:14:10.227Z,62.68
2018-12-14T12:16:39.277Z,62.94
2018-12-14T12:19:08.285Z,62.91
2018-12-14T12:21:37.450Z,62.85
2018-12-14T12:24:06.248Z,62.78
2018-12-14T12:26:35.157Z,63.06
2018-12-14T12:29:03.849Z,62.75
2018-12-14T12:31:32.779Z,62.10
2018-12-14T12:34:01.476Z,61.91
2018-12-14T12:36:30.478Z,61.56
2018-12-14T12:38:59.400Z,61.54
2018-12-14T12:41:28.212Z,61.53
2018-12-14T12:43:57.277Z,61.44
2018-12-14T12:46:26.377Z,62.17
2018-12-14T12:48:55.502Z,62.35
2018-12-14T12:51:24.960Z,63.15
2018-12-14T12:53:53.707Z,63.30
2018-12-14T12:56:22.924Z,63.28
2018-12-14T12:58:51.912Z,63.13
2018-12-14T13:01:20.859Z,63.48
2018-12-14T13:03:49.896Z,63.53
2018-12-14T13:06:18.971Z,63.32
2018-12-14T13:08:48.070Z,63.60
2018-12-14T13:11:17.081Z,63.95
2018-12-14T13:13:46.031Z,64.03
2018-12-14T13:16:14.757Z,63.91
2018-12-14T13:18:43.549Z,63.99
2018-12-14T13:21:12.474Z,63.66
2018-12-14T13:23:41.513Z,63.50
2018-12-14T13:26:10.522Z,64.66
2018-12-14T13:28:39.461Z,64.69
2018-12-14T13:31:08.538Z,64.99
2018-12-14T13:33:37.704Z,64.87
2018-12-14T13:36:06.885Z,64.73
2018-12-14T13:38:35.831Z,65.85
2018-12-14T13:41:04.941Z,65.80
2018-12-14T13:43:33.895Z,65.94
2018-12-14T13:46:02.961Z,66.15
2018-12-14T13:48:31.799Z,66.35
2018-12-14T13:51:00.871Z,66.03
2018-12-14T13:53:29.868Z,65.90
2018-12-14T13:55:58.942Z,65.85
2018-12-14T13:58:28.003Z,66.01
2018-12-14T14:00:57.068Z,65.80
2018-12-14T14:03:25.984Z,66.59
2018-12-14T14:05:54.861Z,66.75
2018-12-14T14:08:23.831Z,65.87
2018-12-14T14:10:52.828Z,66.34
2018-12-14T14:13:21.895Z,66.85
2018-12-14T14:15:51.003Z,67.37
2018-12-14T14:18:19.943Z,67.35
2018-12-14T14:20:48.887Z,67.37
2018-12-14T14:23:17.708Z,68.58
2018-12-14T14:25:47.272Z,68.05
2018-12-14T14:28:16.289Z,68.08
2018-12-14T14:30:45.207Z,67.54
2018-12-14T14:33:14.152Z,66.87
2018-12-14T14:35:43.178Z,66.76
2018-12-14T14:38:12.216Z,66.41
2018-12-14T14:40:41.236Z,65.75
2018-12-14T14:43:10.156Z,66.06
2018-12-14T14:45:39.048Z,65.93
2018-12-14T14:48:08.207Z,65.47
2018-12-14T14:50:37.706Z,65.74
2018-12-14T14:53:06.642Z,66.15
2018-12-14T14:55:35.669Z,66.09
2018-12-14T14:58:04.764Z,66.88
2018-12-14T15:00:34.072Z,66.89
2018-12-14T15:03:03.250Z,66.89
2018-12-14T15:05:32.462Z,67.11
2018-12-14T15:08:01.393Z,66.89
2018-12-14T15:10:30.486Z,67.14
2018-12-14T15:12:59.307Z,67.28
2018-12-14T15:15:28.346Z,67.72
2018-12-14T15:17:57.128Z,68.26
2018-12-14T15:20:25.983Z,68.50
2018-12-14T15:22:54.844Z,69.43
2018-12-14T15:25:24.016Z,69.59
2018-12-14T15:27:53.332Z,69.36
2018-12-14T15:30:22.122Z,69.80
2018-12-14T15:32:50.944Z,69.53
2018-12-14T15:35:19.602Z,69.48
2018-12-14T15:37:48.437Z,69.85
2018-12-14T15:40:17.489Z,69.80
2018-12-14T15:42:46.424Z,70.43
2018-12-14T15:45:15.116Z,69.54
2018-12-14T15:47:44.125Z,69.91
2018-12-14T15:50:12.908Z,70.55
2018-12-14T15:52:41.629Z,70.83
2018-12-14T15:55:10.811Z,71.79
2018-12-14T15:57:39.815Z,71.86
2018-12-14T16:00:08.867Z,72.48
2018-12-14T16:02:37.911Z,72.52
2018-12-14T16:05:06.935Z,72.76
2018-12-14T16:07:35.718Z,72.93
2018-12-14T16:10:06.915Z,72.96
2018-12-14T16:12:36.022Z,73.36
2018-12-14T16:15:05.969Z,73.45
2018-12-14T16:17:35.544Z,73.60
2018-12-14T16:20:05.148Z,73.48
2018-12-14T16:22:34.253Z,73.60
2018-12-14T16:25:03.222Z,73.77
2018-12-14T16:27:32.264Z,73.87
2018-12-14T16:30:01.208Z,73.90
2018-12-14T16:32:30.195Z,74.26
2018-12-14T16:34:59.001Z,74.36
2018-12-14T16:37:27.968Z,75.05
2018-12-14T16:39:56.933Z,75.21
2018-12-14T16:42:26.785Z,75.61
2018-12-14T16:44:55.780Z,75.05
2018-12-14T16:47:25.727Z,75.68
2018-12-14T16:49:54.687Z,76.06
2018-12-14T16:52:23.608Z,75.77
2018-12-14T16:54:52.717Z,76.23
2018-12-14T16:57:21.756Z,76.60
2018-12-14T16:59:50.659Z,76.82
2018-12-14T17:02:19.769Z,76.93
2018-12-14T17:04:49.041Z,76.99
2018-12-14T17:07:18.064Z,76.63
2018-12-14T17:09:47.032Z,75.69
2018-12-14T17:12:15.968Z,75.68
2018-12-14T17:14:44.661Z,75.99
2018-12-14T17:17:13.642Z,76.04
2018-12-14T17:19:42.636Z,75.31
2018-12-14T17:22:11.705Z,75.65
2018-12-14T17:24:40.828Z,75.94
2018-12-14T17:27:10.049Z,75.65
2018-12-14T17:29:39.245Z,76.16
2018-12-14T17:32:08.040Z,76.31
2018-12-14T17:34:36.927Z,76.18
2018-12-14T17:37:05.888Z,76.37
2018-12-14T17:39:35.646Z,76.34
2018-12-14T17:42:04.711Z,76.05
2018-12-14T17:44:33.743Z,76.18
2018-12-14T17:47:02.812Z,76.03
2018-12-14T17:49:31.728Z,76.16
2018-12-14T17:52:00.722Z,76.15
2018-12-14T17:54:29.812Z,76.49
2018-12-14T17:56:58.805Z,76.04
2018-12-14T17:59:27.864Z,76.26
2018-12-14T18:01:56.842Z,76.40
2018-12-14T18:04:25.848Z,77.22
2018-12-14T18:06:54.716Z,77.00
2018-12-14T18:09:24.030Z,77.47
2018-12-14T18:11:52.844Z,77.65
2018-12-14T18:14:21.712Z,77.73
2018-12-14T18:16:50.775Z,78.25
2018-12-14T18:19:19.744Z,78.26
2018-12-14T18:21:48.490Z,78.10
2018-12-14T18:24:17.598Z,77.44
2018-12-14T18:26:48.237Z,77.53
2018-12-14T18:29:16.890Z,77.05
2018-12-14T18:31:45.721Z,77.36
2018-12-14T18:34:14.821Z,78.04
2018-12-14T18:36:43.844Z,78.31
2018-12-14T18:39:12.907Z,78.35
2018-12-14T18:41:42.049Z,78.22
2018-12-14T18:44:10.768Z,77.58
2018-12-14T18:46:40.399Z,77.44
2018-12-14T18:49:09.489Z,77.57
2018-12-14T18:51:40.097Z,77.95
2018-12-14T18:54:09.016Z,77.65
2018-12-14T18:56:38.040Z,77.11
2018-12-14T18:59:07.160Z,77.26
2018-12-14T19:01:36.102Z,77.15
2018-12-14T19:04:05.080Z,77.76
2018-12-14T19:06:33.946Z,77.58
2018-12-14T19:09:02.801Z,77.73
2018-12-14T19:11:31.815Z,77.44
2018-12-14T19:14:00.844Z,78.25
2018-12-14T19:16:30.715Z,77.54
2018-12-14T19:18:59.386Z,77.26
2018-12-14T19:21:28.816Z,77.87
2018-12-14T19:23:57.613Z,78.36
2018-12-14T19:26:26.483Z,78.14
2018-12-14T19:28:55.467Z,77.60
2018-12-14T19:31:24.716Z,76.88
2018-12-14T19:33:53.710Z,75.92
2018-12-14T19:36:22.698Z,76.16
2018-12-14T19:38:52.264Z,76.59
2018-12-14T19:41:21.296Z,77.06
2018-12-14T19:43:50.304Z,77.87
2018-12-14T19:46:19.251Z,78.19
2018-12-14T19:48:48.180Z,78.41
2018-12-14T19:51:17.176Z,78.32
2018-12-14T19:53:46.257Z,78.64
2018-12-14T19:56:15.287Z,77.56
2018-12-14T19:58:44.561Z,77.69
2018-12-14T20:01:13.641Z,77.77
2018-12-14T20:03:42.947Z,77.01
2018-12-14T20:06:11.569Z,76.60
2018-12-14T20:08:40.558Z,76.79
2018-12-14T20:11:09.668Z,77.32
2018-12-14T20:13:38.560Z,77.20
2018-12-14T20:16:12.794Z,77.25
2018-12-14T20:18:38.458Z,77.37
2018-12-14T20:21:07.128Z,77.02
2018-12-14T20:23:36.260Z,77.28
2018-12-14T20:26:05.105Z,76.93
2018-12-14T20:28:34.073Z,76.96
2018-12-14T20:31:03.102Z,76.08
2018-12-14T20:33:32.393Z,75.45
2018-12-14T20:36:00.999Z,75.59
2018-12-14T20:38:29.703Z,76.21
2018-12-14T20:40:58.751Z,76.44
2018-12-14T20:43:28.463Z,76.80
2018-12-14T20:45:57.660Z,76.67
2018-12-14T20:48:26.850Z,77.08
2018-12-14T20:50:55.828Z,77.25
2018-12-14T20:53:24.774Z,76.76
2018-12-14T20:55:53.431Z,75.58
2018-12-14T20:58:22.207Z,75.73
2018-12-14T21:00:50.986Z,75.96
2018-12-14T21:03:19.909Z,75.85
2018-12-14T21:05:48.849Z,75.21
2018-12-14T21:08:17.740Z,75.45
2018-12-14T21:10:46.656Z,75.71
2018-12-14T21:13:15.808Z,75.43
2018-12-14T21:15:44.823Z,74.41
2018-12-14T21:18:13.628Z,74.18
2018-12-14T21:20:42.540Z,74.30
2018-12-14T21:23:11.840Z,74.12
2018-12-14T21:25:40.973Z,75.06
2018-12-14T21:28:09.978Z,75.35
2018-12-14T21:30:38.666Z,75.52
2018-12-14T21:33:07.424Z,75.42
2018-12-14T21:35:36.299Z,75.31
2018-12-14T21:38:05.234Z,75.28
2018-12-14T21:40:34.252Z,74.74
2018-12-14T21:43:03.283Z,74.15
2018-12-14T21:45:32.235Z,74.12
2018-12-14T21:48:00.925Z,74.25
2018-12-14T21:50:29.692Z,73.57
2018-12-14T21:52:58.624Z,74.43
2018-12-14T21:55:27.648Z,74.47
2018-12-14T21:57:56.918Z,74.24
2018-12-14T22:00:25.884Z,74.56
2018-12-14T22:02:54.751Z,74.85
2018-12-14T22:05:23.802Z,74.86
2018-12-14T22:07:52.859Z,75.14
2018-12-14T22:10:21.585Z,75.56
2018-12-14T22:12:50.748Z,75.68
2018-12-14T22:15:19.617Z,75.89
2018-12-14T22:17:48.709Z,76.42
2018-12-14T22:20:17.772Z,76.39
2018-12-14T22:22:46.547Z,76.47
2018-12-14T22:25:15.236Z,76.24
2018-12-14T22:27:43.963Z,76.28
2018-12-14T22:30:12.749Z,76.00
2018-12-14T22:32:41.540Z,76.04
2018-12-14T22:35:10.556Z,76.47
2018-12-14T22:37:39.560Z,76.55
2018-12-14T22:40:08.834Z,76.26
2018-12-14T22:42:37.831Z,76.11
2018-12-14T22:45:07.300Z,76.02
2018-12-14T22:47:36.334Z,75.57
2018-12-14T22:50:05.517Z,75.19
2018-12-14T22:52:34.426Z,75.85
2018-12-14T22:55:03.574Z,76.39
2018-12-14T22:57:32.596Z,76.61
2018-12-14T23:00:01.284Z,77.16
2018-12-14T23:02:30.100Z,77.58
2018-12-14T23:04:59.163Z,77.82
2018-12-14T23:07:28.118Z,78.17
2018-12-14T23:09:57.032Z,77.82
2018-12-14T23:12:25.713Z,78.14
2018-12-14T23:14:54.679Z,78.60
2018-12-14T23:17:23.625Z,78.97
2018-12-14T23:19:52.535Z,79.09
2018-12-14T23:22:21.260Z,79.41
2018-12-14T23:24:50.289Z,79.41
2018-12-14T23:27:19.387Z,79.41
2018-12-14T23:29:48.345Z,80.00
2018-12-14T23:32:16.999Z,79.88
2018-12-14T23:34:45.883Z,79.90
2018-12-14T23:37:14.947Z,80.24
2018-12-14T23:39:43.808Z,80.24
2018-12-14T23:42:12.887Z,80.59
2018-12-14T23:44:41.649Z,80.34
2018-12-14T23:47:10.580Z,80.74
2018-12-14T23:49:39.513Z,80.77
2018-12-14T23:52:08.266Z,80.89
2018-12-14T23:54:37.342Z,80.61
2018-12-14T23:57:12.120Z,79.91
2018-12-14T23:59:37.500Z,79.26
